MAU852 FAOR-FIMP
Flight info
| Callsign | MAU852 |
|---|---|
| Flight time | N/A |
| Altitude | 41000 |
| Route | EXOBI3B EXOBI UT122 ORNAD/N0437F270 UG653 SUNIR/N0479F410 UG653 GERAG DCT EPTEK EPTEK2E |
| Aircraft | A359/M-SDE2E3GHIJ1J3J4J5LM1ORWXY/LB1D1 |
Departure
| Time | N/A |
|---|---|
| Airport | O.R. Tambo International Airport (FAOR) |
Arrival
| Time | 2026-05-07 20:08 |
|---|---|
| Airport | Sir Seewoosagur Ramgoolam International Airport (FIMP) |
| Time | Latitude | Longitude | Altitude | Speed | Heading |
|---|---|---|---|---|---|
| 2026-05-07 20:04 | -20.39075 | 57.48413 | 5271 ft | 235 kts | 66° |
| 2026-05-07 20:04 | -20.38482 | 57.49769 | 5007 ft | 233 kts | 67° |
| 2026-05-07 20:04 | -20.37779 | 57.51368 | 4632 ft | 233 kts | 66° |
| 2026-05-07 20:04 | -20.37218 | 57.52980 | 4252 ft | 232 kts | 77° |
| 2026-05-07 20:05 | -20.37038 | 57.54592 | 3903 ft | 231 kts | 90° |
| 2026-05-07 20:05 | -20.37139 | 57.55668 | 3649 ft | 234 kts | 99° |
| 2026-05-07 20:05 | -20.37641 | 57.57372 | 3142 ft | 238 kts | 117° |
| 2026-05-07 20:05 | -20.38482 | 57.58866 | 2575 ft | 234 kts | 120° |
| 2026-05-07 20:06 | -20.39245 | 57.60285 | 2014 ft | 234 kts | 116° |
| 2026-05-07 20:06 | -20.39944 | 57.61837 | 1484 ft | 229 kts | 112° |
| 2026-05-07 20:06 | -20.40594 | 57.63325 | 1229 ft | 211 kts | 117° |
| 2026-05-07 20:06 | -20.41241 | 57.64651 | 868 ft | 195 kts | 113° |
| 2026-05-07 20:07 | -20.41820 | 57.65866 | 536 ft | 186 kts | 115° |
| 2026-05-07 20:07 | -20.42389 | 57.67039 | 282 ft | 170 kts | 115° |
| 2026-05-07 20:07 | -20.42900 | 57.68100 | 205 ft | 142 kts | 118° |
| 2026-05-07 20:07 | -20.43218 | 57.68758 | 177 ft | 56 kts | 117° |
| 2026-05-07 20:08 | -20.43306 | 57.68942 | 166 ft | 25 kts | 117° |
| 2026-05-07 20:08 | -20.43395 | 57.69127 | 156 ft | 30 kts | 117° |
| 2026-05-07 20:08 | -20.43505 | 57.69344 | 142 ft | 31 kts | 133° |
| 2026-05-07 20:08 | -20.43643 | 57.69303 | 153 ft | 18 kts | 246° |
| 2026-05-07 20:09 | -20.43629 | 57.69206 | 162 ft | 14 kts | 295° |
| 2026-05-07 20:09 | -20.43589 | 57.69118 | 169 ft | 12 kts | 299° |
| 2026-05-07 20:09 | -20.43532 | 57.69000 | 177 ft | 23 kts | 297° |
| 2026-05-07 20:10 | -20.43384 | 57.68696 | 182 ft | 25 kts | 297° |
| 2026-05-07 20:10 | -20.43301 | 57.68525 | 191 ft | 26 kts | 292° |
| 2026-05-07 20:10 | -20.43219 | 57.68351 | 198 ft | 27 kts | 297° |
| 2026-05-07 20:10 | -20.43138 | 57.68177 | 206 ft | 26 kts | 284° |
| 2026-05-07 20:11 | -20.43172 | 57.68093 | 199 ft | 16 kts | 214° |